sensor_id;sensor_type;location;lat;lon;timestamp;pressure;altitude;pressure_sealevel;temperature;humidity
23953;BME280;12163;49.316;6.092;2024-01-11T00:01:50;100560.03;;;-0.59;56.80
23953;BME280;12163;49.316;6.092;2024-01-11T00:04:17;100561.06;;;-0.60;56.92
23953;BME280;12163;49.316;6.092;2024-01-11T00:06:44;100564.31;;;-0.58;56.18
23953;BME280;12163;49.316;6.092;2024-01-11T00:09:11;100558.41;;;-0.60;56.30
23953;BME280;12163;49.316;6.092;2024-01-11T00:11:38;100564.72;;;-0.61;56.58
23953;BME280;12163;49.316;6.092;2024-01-11T00:14:05;100562.69;;;-0.59;55.77
23953;BME280;12163;49.316;6.092;2024-01-11T00:16:31;100563.69;;;-0.60;56.36
23953;BME280;12163;49.316;6.092;2024-01-11T00:18:58;100558.41;;;-0.60;56.03
23953;BME280;12163;49.316;6.092;2024-01-11T00:21:25;100557.78;;;-0.62;56.31
23953;BME280;12163;49.316;6.092;2024-01-11T00:23:52;100555.28;;;-0.63;56.88
23953;BME280;12163;49.316;6.092;2024-01-11T00:26:18;100555.13;;;-0.62;56.73
23953;BME280;12163;49.316;6.092;2024-01-11T00:28:45;100557.78;;;-0.62;56.95
23953;BME280;12163;49.316;6.092;2024-01-11T00:31:12;100559.41;;;-0.61;56.34
23953;BME280;12163;49.316;6.092;2024-01-11T00:33:39;100559.78;;;-0.64;56.85
23953;BME280;12163;49.316;6.092;2024-01-11T00:36:06;100570.41;;;-0.64;56.98
23953;BME280;12163;49.316;6.092;2024-01-11T00:38:32;100574.41;;;-0.68;57.41
23953;BME280;12163;49.316;6.092;2024-01-11T00:40:59;100565.19;;;-0.72;57.18
23953;BME280;12163;49.316;6.092;2024-01-11T00:43:26;100575.16;;;-0.74;56.77
23953;BME280;12163;49.316;6.092;2024-01-11T00:45:52;100574.78;;;-0.71;56.60
23953;BME280;12163;49.316;6.092;2024-01-11T00:48:19;100573.16;;;-0.72;57.01
23953;BME280;12163;49.316;6.092;2024-01-11T00:50:45;100560.91;;;-0.73;56.50
23953;BME280;12163;49.316;6.092;2024-01-11T00:53:12;100560.47;;;-0.76;57.15
23953;BME280;12163;49.316;6.092;2024-01-11T00:55:41;100568.22;;;-0.75;57.09
23953;BME280;12163;49.316;6.092;2024-01-11T00:58:07;100577.00;;;-0.74;57.16
23953;BME280;12163;49.316;6.092;2024-01-11T01:00:34;100568.59;;;-0.78;57.19
23953;BME280;12163;49.316;6.092;2024-01-11T01:03:01;100570.63;;;-0.80;57.33
23953;BME280;12163;49.316;6.092;2024-01-11T01:05:27;100567.34;;;-0.82;57.15
23953;BME280;12163;49.316;6.092;2024-01-11T01:07:54;100580.59;;;-0.82;56.62
23953;BME280;12163;49.316;6.092;2024-01-11T01:10:21;100571.81;;;-0.82;56.90
23953;BME280;12163;49.316;6.092;2024-01-11T01:12:47;100564.06;;;-0.84;56.90
23953;BME280;12163;49.316;6.092;2024-01-11T01:15:14;100567.09;;;-0.87;56.48
23953;BME280;12163;49.316;6.092;2024-01-11T01:17:41;100559.13;;;-0.87;57.11
23953;BME280;12163;49.316;6.092;2024-01-11T01:20:08;100558.75;;;-0.84;57.00
23953;BME280;12163;49.316;6.092;2024-01-11T01:22:35;100556.91;;;-0.83;56.65
23953;BME280;12163;49.316;6.092;2024-01-11T01:25:02;100569.38;;;-0.84;57.32
23953;BME280;12163;49.316;6.092;2024-01-11T01:27:28;100566.09;;;-0.86;56.67
23953;BME280;12163;49.316;6.092;2024-01-11T01:29:55;100571.38;;;-0.86;56.60
23953;BME280;12163;49.316;6.092;2024-01-11T01:32:21;100580.97;;;-0.85;56.55
23953;BME280;12163;49.316;6.092;2024-01-11T01:34:49;100575.66;;;-0.85;56.80
23953;BME280;12163;49.316;6.092;2024-01-11T01:37:15;100580.97;;;-0.85;56.71
23953;BME280;12163;49.316;6.092;2024-01-11T01:39:42;100573.66;;;-0.83;56.18
23953;BME280;12163;49.316;6.092;2024-01-11T01:42:08;100560.03;;;-0.80;56.13
23953;BME280;12163;49.316;6.092;2024-01-11T01:44:35;100576.31;;;-0.83;56.01
23953;BME280;12163;49.316;6.092;2024-01-11T01:47:03;100586.91;;;-0.83;56.08
23953;BME280;12163;49.316;6.092;2024-01-11T01:49:31;100578.50;;;-0.86;55.96
23953;BME280;12163;49.316;6.092;2024-01-11T01:51:58;100577.06;;;-0.89;55.96
23953;BME280;12163;49.316;6.092;2024-01-11T01:54:25;100585.63;;;-0.87;56.18
23953;BME280;12163;49.316;6.092;2024-01-11T01:56:53;100585.00;;;-0.89;56.23
23953;BME280;12163;49.316;6.092;2024-01-11T01:59:20;100593.28;;;-0.92;56.44
23953;BME280;12163;49.316;6.092;2024-01-11T02:01:48;100600.63;;;-0.94;56.82
23953;BME280;12163;49.316;6.092;2024-01-11T02:04:14;100594.13;;;-0.91;56.92
23953;BME280;12163;49.316;6.092;2024-01-11T02:06:44;100607.19;;;-0.90;56.92
23953;BME280;12163;49.316;6.092;2024-01-11T02:09:11;100598.25;;;-0.89;56.92
23953;BME280;12163;49.316;6.092;2024-01-11T02:11:41;100598.59;;;-0.92;56.35
23953;BME280;12163;49.316;6.092;2024-01-11T02:14:09;100609.41;;;-0.93;56.14
23953;BME280;12163;49.316;6.092;2024-01-11T02:16:37;100611.66;;;-0.90;56.16
23953;BME280;12163;49.316;6.092;2024-01-11T02:19:11;100610.03;;;-0.91;56.26
23953;BME280;12163;49.316;6.092;2024-01-11T02:21:42;100603.91;;;-0.92;56.23
23953;BME280;12163;49.316;6.092;2024-01-11T02:24:09;100612.41;;;-0.96;56.13
23953;BME280;12163;49.316;6.092;2024-01-11T02:26:36;100599.34;;;-0.98;56.06
23953;BME280;12163;49.316;6.092;2024-01-11T02:29:03;100605.28;;;-0.96;55.90
23953;BME280;12163;49.316;6.092;2024-01-11T02:31:30;100607.94;;;-0.96;56.10
23953;BME280;12163;49.316;6.092;2024-01-11T02:33:57;100607.13;;;-0.96;56.01
23953;BME280;12163;49.316;6.092;2024-01-11T02:36:24;100600.19;;;-0.97;55.96
23953;BME280;12163;49.316;6.092;2024-01-11T02:38:52;100609.94;;;-0.98;55.74
23953;BME280;12163;49.316;6.092;2024-01-11T02:41:20;100615.63;;;-1.01;56.05
23953;BME280;12163;49.316;6.092;2024-01-11T02:43:48;100612.72;;;-1.06;55.74
23953;BME280;12163;49.316;6.092;2024-01-11T02:46:15;100613.72;;;-1.07;56.15
23953;BME280;12163;49.316;6.092;2024-01-11T02:48:43;100612.06;;;-1.08;55.72
23953;BME280;12163;49.316;6.092;2024-01-11T02:51:09;100614.91;;;-1.09;56.03
23953;BME280;12163;49.316;6.092;2024-01-11T02:53:36;100610.78;;;-1.12;56.20
23953;BME280;12163;49.316;6.092;2024-01-11T02:56:03;100607.78;;;-1.09;56.29
23953;BME280;12163;49.316;6.092;2024-01-11T02:58:30;100598.09;;;-1.16;56.45
23953;BME280;12163;49.316;6.092;2024-01-11T03:00:56;100597.28;;;-1.17;56.42
23953;BME280;12163;49.316;6.092;2024-01-11T03:03:23;100598.09;;;-1.16;56.14
23953;BME280;12163;49.316;6.092;2024-01-11T03:05:49;100591.97;;;-1.17;56.13
23953;BME280;12163;49.316;6.092;2024-01-11T03:08:16;100591.72;;;-1.22;56.43
23953;BME280;12163;49.316;6.092;2024-01-11T03:10:43;100596.63;;;-1.19;56.17
23953;BME280;12163;49.316;6.092;2024-01-11T03:13:09;100595.00;;;-1.20;56.25
23953;BME280;12163;49.316;6.092;2024-01-11T03:15:36;100602.31;;;-1.22;55.99
23953;BME280;12163;49.316;6.092;2024-01-11T03:18:02;100603.47;;;-1.24;56.34
23953;BME280;12163;49.316;6.092;2024-01-11T03:20:30;100599.66;;;-1.22;56.21
23953;BME280;12163;49.316;6.092;2024-01-11T03:22:56;100598.03;;;-1.23;56.19
23953;BME280;12163;49.316;6.092;2024-01-11T03:25:23;100602.31;;;-1.22;56.33
23953;BME280;12163;49.316;6.092;2024-01-11T03:27:50;100601.69;;;-1.24;56.02
23953;BME280;12163;49.316;6.092;2024-01-11T03:30:16;100592.09;;;-1.25;56.17
23953;BME280;12163;49.316;6.092;2024-01-11T03:32:43;100600.19;;;-1.26;56.14
23953;BME280;12163;49.316;6.092;2024-01-11T03:35:10;100599.41;;;-1.27;56.14
23953;BME280;12163;49.316;6.092;2024-01-11T03:37:37;100600.41;;;-1.28;56.57
23953;BME280;12163;49.316;6.092;2024-01-11T03:40:04;100594.47;;;-1.30;56.84
23953;BME280;12163;49.316;6.092;2024-01-11T03:42:31;100587.88;;;-1.34;57.35
23953;BME280;12163;49.316;6.092;2024-01-11T03:44:58;100581.69;;;-1.41;57.34
23953;BME280;12163;49.316;6.092;2024-01-11T03:47:26;100582.69;;;-1.42;57.16
23953;BME280;12163;49.316;6.092;2024-01-11T03:49:53;100576.94;;;-1.45;57.34
23953;BME280;12163;49.316;6.092;2024-01-11T03:52:19;100580.03;;;-1.42;56.96
23953;BME280;12163;49.316;6.092;2024-01-11T03:54:46;100585.97;;;-1.40;56.94
23953;BME280;12163;49.316;6.092;2024-01-11T03:57:13;100592.75;;;-1.37;56.81
23953;BME280;12163;49.316;6.092;2024-01-11T03:59:40;100594.56;;;-1.38;56.73
23953;BME280;12163;49.316;6.092;2024-01-11T04:02:07;100592.28;;;-1.41;56.92
23953;BME280;12163;49.316;6.092;2024-01-11T04:04:34;100591.63;;;-1.43;57.22
23953;BME280;12163;49.316;6.092;2024-01-11T04:07:01;100598.19;;;-1.39;56.70
23953;BME280;12163;49.316;6.092;2024-01-11T04:09:27;100598.19;;;-1.39;57.34
23953;BME280;12163;49.316;6.092;2024-01-11T04:11:54;100587.81;;;-1.40;57.02
23953;BME280;12163;49.316;6.092;2024-01-11T04:14:20;100590.63;;;-1.42;57.25
23953;BME280;12163;49.316;6.092;2024-01-11T04:16:47;100590.16;;;-1.45;57.01
23953;BME280;12163;49.316;6.092;2024-01-11T04:19:14;100581.41;;;-1.46;57.60
23953;BME280;12163;49.316;6.092;2024-01-11T04:21:42;100586.53;;;-1.44;57.54
23953;BME280;12163;49.316;6.092;2024-01-11T04:24:08;100591.00;;;-1.45;58.01
23953;BME280;12163;49.316;6.092;2024-01-11T04:26:36;100585.25;;;-1.48;58.65
23953;BME280;12163;49.316;6.092;2024-01-11T04:29:02;100575.03;;;-1.51;58.08
23953;BME280;12163;49.316;6.092;2024-01-11T04:31:29;100575.03;;;-1.51;57.86
23953;BME280;12163;49.316;6.092;2024-01-11T04:33:56;100582.97;;;-1.51;58.12
23953;BME280;12163;49.316;6.092;2024-01-11T04:36:23;100576.22;;;-1.54;58.27
23953;BME280;12163;49.316;6.092;2024-01-11T04:38:50;100576.22;;;-1.54;58.04
23953;BME280;12163;49.316;6.092;2024-01-11T04:41:16;100576.56;;;-1.57;57.92
23953;BME280;12163;49.316;6.092;2024-01-11T04:43:44;100576.22;;;-1.54;57.51
23953;BME280;12163;49.316;6.092;2024-01-11T04:46:20;100575.41;;;-1.54;57.45
23953;BME280;12163;49.316;6.092;2024-01-11T04:48:47;100570.28;;;-1.56;57.84
23953;BME280;12163;49.316;6.092;2024-01-11T04:51:17;100578.56;;;-1.59;57.09
23953;BME280;12163;49.316;6.092;2024-01-11T04:53:45;100583.88;;;-1.59;57.90
23953;BME280;12163;49.316;6.092;2024-01-11T04:56:14;100580.59;;;-1.61;57.69
23953;BME280;12163;49.316;6.092;2024-01-11T04:58:42;100584.06;;;-1.60;57.41
23953;BME280;12163;49.316;6.092;2024-01-11T05:01:16;100585.88;;;-1.61;57.40
23953;BME280;12163;49.316;6.092;2024-01-11T05:03:45;100587.09;;;-1.63;57.12
23953;BME280;12163;49.316;6.092;2024-01-11T05:06:16;100587.25;;;-1.65;57.61
23953;BME280;12163;49.316;6.092;2024-01-11T05:08:44;100590.09;;;-1.66;58.24
23953;BME280;12163;49.316;6.092;2024-01-11T05:11:21;100580.97;;;-1.64;58.01
23953;BME280;12163;49.316;6.092;2024-01-11T05:13:48;100589.91;;;-1.65;57.66
23953;BME280;12163;49.316;6.092;2024-01-11T05:16:23;100589.91;;;-1.65;57.53
23953;BME280;12163;49.316;6.092;2024-01-11T05:18:51;100592.75;;;-1.66;57.63
23953;BME280;12163;49.316;6.092;2024-01-11T05:21:18;100591.06;;;-1.67;57.34
23953;BME280;12163;49.316;6.092;2024-01-11T05:23:45;100590.09;;;-1.66;57.41
23953;BME280;12163;49.316;6.092;2024-01-11T05:26:13;100604.13;;;-1.66;57.98
23953;BME280;12163;49.316;6.092;2024-01-11T05:28:40;100613.53;;;-1.63;57.97
23953;BME280;12163;49.316;6.092;2024-01-11T05:31:09;100614.34;;;-1.63;58.34
23953;BME280;12163;49.316;6.092;2024-01-11T05:33:36;100616.34;;;-1.65;58.17
23953;BME280;12163;49.316;6.092;2024-01-11T05:36:03;100613.72;;;-1.65;58.07
23953;BME280;12163;49.316;6.092;2024-01-11T05:38:30;100609.44;;;-1.66;57.67
23953;BME280;12163;49.316;6.092;2024-01-11T05:40:57;100621.00;;;-1.67;57.73
23953;BME280;12163;49.316;6.092;2024-01-11T05:43:24;100624.50;;;-1.66;58.08
23953;BME280;12163;49.316;6.092;2024-01-11T05:45:50;100631.44;;;-1.65;57.77
23953;BME280;12163;49.316;6.092;2024-01-11T05:48:17;100624.94;;;-1.63;58.14
23953;BME280;12163;49.316;6.092;2024-01-11T05:50:44;100628.22;;;-1.61;58.20
23953;BME280;12163;49.316;6.092;2024-01-11T05:53:11;100615.94;;;-1.54;58.18
23953;BME280;12163;49.316;6.092;2024-01-11T05:55:39;100625.50;;;-1.24;60.95
23953;BME280;12163;49.316;6.092;2024-01-11T05:58:06;100610.16;;;-0.99;61.13
23953;BME280;12163;49.316;6.092;2024-01-11T06:00:32;100605.34;;;-0.54;58.63
23953;BME280;12163;49.316;6.092;2024-01-11T06:03:00;100612.22;;;-0.59;56.46
23953;BME280;12163;49.316;6.092;2024-01-11T06:05:26;100609.22;;;-0.71;56.47
23953;BME280;12163;49.316;6.092;2024-01-11T06:07:53;100618.69;;;-0.83;56.49
23953;BME280;12163;49.316;6.092;2024-01-11T06:10:20;100624.66;;;-0.95;56.90
23953;BME280;12163;49.316;6.092;2024-01-11T06:12:46;100631.50;;;-1.01;57.23
23953;BME280;12163;49.316;6.092;2024-01-11T06:15:13;100627.00;;;-1.00;56.87
23953;BME280;12163;49.316;6.092;2024-01-11T06:17:40;100629.88;;;-1.02;56.55
23953;BME280;12163;49.316;6.092;2024-01-11T06:20:07;100618.00;;;-1.06;56.76
23953;BME280;12163;49.316;6.092;2024-01-11T06:22:34;100620.81;;;-1.07;56.97
23953;BME280;12163;49.316;6.092;2024-01-11T06:25:00;100617.75;;;-1.11;57.02
23953;BME280;12163;49.316;6.092;2024-01-11T06:27:27;100617.44;;;-1.16;56.86
23953;BME280;12163;49.316;6.092;2024-01-11T06:29:53;100626.22;;;-1.15;56.88
23953;BME280;12163;49.316;6.092;2024-01-11T06:32:21;100626.78;;;-1.20;57.28
23953;BME280;12163;49.316;6.092;2024-01-11T06:34:48;100636.72;;;-1.22;57.55
23953;BME280;12163;49.316;6.092;2024-01-11T06:37:15;100628.69;;;-1.28;57.43
23953;BME280;12163;49.316;6.092;2024-01-11T06:39:41;100631.16;;;-1.27;57.42
23953;BME280;12163;49.316;6.092;2024-01-11T06:42:08;100640.28;;;-1.29;57.73
23953;BME280;12163;49.316;6.092;2024-01-11T06:44:34;100640.50;;;-1.31;57.47
23953;BME280;12163;49.316;6.092;2024-01-11T06:47:01;100646.97;;;-1.33;57.90
23953;BME280;12163;49.316;6.092;2024-01-11T06:49:29;100649.78;;;-1.35;57.70
23953;BME280;12163;49.316;6.092;2024-01-11T06:51:56;100649.13;;;-1.37;57.54
23953;BME280;12163;49.316;6.092;2024-01-11T06:54:23;100649.34;;;-1.38;57.98
23953;BME280;12163;49.316;6.092;2024-01-11T06:56:49;100652.16;;;-1.40;57.89
23953;BME280;12163;49.316;6.092;2024-01-11T06:59:16;100645.69;;;-1.37;58.00
23953;BME280;12163;49.316;6.092;2024-01-11T07:01:45;100635.84;;;-1.43;57.79
23953;BME280;12163;49.316;6.092;2024-01-11T07:04:11;100645.94;;;-1.47;58.06
23953;BME280;12163;49.316;6.092;2024-01-11T07:06:38;100655.53;;;-1.46;57.91
23953;BME280;12163;49.316;6.092;2024-01-11T07:09:05;100647.88;;;-1.41;58.62
23953;BME280;12163;49.316;6.092;2024-01-11T07:11:32;100660.72;;;-1.38;58.17
23953;BME280;12163;49.316;6.092;2024-01-11T07:13:59;100670.78;;;-1.33;58.51
23953;BME280;12163;49.316;6.092;2024-01-11T07:16:25;100672.44;;;-1.32;57.97
23953;BME280;12163;49.316;6.092;2024-01-11T07:18:52;100681.91;;;-1.38;57.82
23953;BME280;12163;49.316;6.092;2024-01-11T07:21:23;100678.25;;;-1.37;58.32
23953;BME280;12163;49.316;6.092;2024-01-11T07:23:56;100687.84;;;-1.36;57.79
23953;BME280;12163;49.316;6.092;2024-01-11T07:26:25;100689.22;;;-1.40;58.36
23953;BME280;12163;49.316;6.092;2024-01-11T07:28:53;100705.09;;;-1.40;58.49
23953;BME280;12163;49.316;6.092;2024-01-11T07:31:22;100706.28;;;-1.42;58.06
23953;BME280;12163;49.316;6.092;2024-01-11T07:33:49;100707.09;;;-1.42;58.37
23953;BME280;12163;49.316;6.092;2024-01-11T07:36:16;100709.13;;;-1.44;58.46
23953;BME280;12163;49.316;6.092;2024-01-11T07:38:43;100721.34;;;-1.43;58.31
23953;BME280;12163;49.316;6.092;2024-01-11T07:41:09;100726.28;;;-1.40;58.38
23953;BME280;12163;49.316;6.092;2024-01-11T07:43:37;100721.63;;;-1.38;58.75
23953;BME280;12163;49.316;6.092;2024-01-11T07:46:19;100707.94;;;-1.41;58.62
23953;BME280;12163;49.316;6.092;2024-01-11T07:48:58;100720.63;;;-1.37;58.61
23953;BME280;12163;49.316;6.092;2024-01-11T07:51:25;100720.25;;;-1.34;58.31
23953;BME280;12163;49.316;6.092;2024-01-11T07:53:53;100715.63;;;-1.32;58.40
23953;BME280;12163;49.316;6.092;2024-01-11T07:56:19;100709.31;;;-1.31;58.27
23953;BME280;12163;49.316;6.092;2024-01-11T07:58:46;100717.53;;;-1.26;58.89
23953;BME280;12163;49.316;6.092;2024-01-11T08:01:16;100708.59;;;-1.25;58.41
23953;BME280;12163;49.316;6.092;2024-01-11T08:03:43;100726.84;;;-1.30;58.71
23953;BME280;12163;49.316;6.092;2024-01-11T08:06:11;100721.56;;;-1.30;58.57
23953;BME280;12163;49.316;6.092;2024-01-11T08:08:39;100719.06;;;-1.31;58.46
23953;BME280;12163;49.316;6.092;2024-01-11T08:11:10;100718.53;;;-1.27;58.63
23953;BME280;12163;49.316;6.092;2024-01-11T08:13:39;100718.53;;;-1.27;59.07
23953;BME280;12163;49.316;6.092;2024-01-11T08:16:06;100716.63;;;-1.18;58.58
23953;BME280;12163;49.316;6.092;2024-01-11T08:18:36;100706.47;;;-1.15;59.02
23953;BME280;12163;49.316;6.092;2024-01-11T08:21:03;100707.31;;;-1.14;58.38
23953;BME280;12163;49.316;6.092;2024-01-11T08:23:33;100715.72;;;-1.11;58.35
23953;BME280;12163;49.316;6.092;2024-01-11T08:25:59;100708.44;;;-1.09;58.57
23953;BME280;12163;49.316;6.092;2024-01-11T08:28:26;100704.56;;;-1.06;58.32
23953;BME280;12163;49.316;6.092;2024-01-11T08:30:52;100705.03;;;-1.03;58.22
23953;BME280;12163;49.316;6.092;2024-01-11T08:33:19;100695.53;;;-0.97;57.97
23953;BME280;12163;49.316;6.092;2024-01-11T08:35:46;100706.78;;;-0.95;57.87
23953;BME280;12163;49.316;6.092;2024-01-11T08:38:13;100704.56;;;-0.92;57.63
23953;BME280;12163;49.316;6.092;2024-01-11T08:40:39;100705.88;;;-0.88;57.86
23953;BME280;12163;49.316;6.092;2024-01-11T08:43:06;100711.06;;;-0.80;57.78
23953;BME280;12163;49.316;6.092;2024-01-11T08:45:33;100717.25;;;-0.73;57.78
23953;BME280;12163;49.316;6.092;2024-01-11T08:47:59;100713.53;;;-0.64;57.49
23953;BME280;12163;49.316;6.092;2024-01-11T08:50:27;100717.69;;;-0.55;57.98
23953;BME280;12163;49.316;6.092;2024-01-11T08:52:55;100706.97;;;-0.47;57.70
23953;BME280;12163;49.316;6.092;2024-01-11T08:55:22;100706.88;;;-0.39;56.97
23953;BME280;12163;49.316;6.092;2024-01-11T08:57:49;100706.69;;;-0.37;56.94
23953;BME280;12163;49.316;6.092;2024-01-11T09:00:15;100709.78;;;-0.34;56.87
23953;BME280;12163;49.316;6.092;2024-01-11T09:02:44;100707.38;;;-0.29;56.94
23953;BME280;12163;49.316;6.092;2024-01-11T09:05:14;100699.34;;;-0.21;56.79
23953;BME280;12163;49.316;6.092;2024-01-11T09:07:41;100701.22;;;-0.15;56.80
23953;BME280;12163;49.316;6.092;2024-01-11T09:10:09;100709.69;;;-0.05;56.76
23953;BME280;12163;49.316;6.092;2024-01-11T09:12:36;100709.69;;;-0.05;56.47
23953;BME280;12163;49.316;6.092;2024-01-11T09:15:03;100718.28;;;-0.03;56.17
23953;BME280;12163;49.316;6.092;2024-01-11T09:17:30;100716.25;;;-0.01;55.93
23953;BME280;12163;49.316;6.092;2024-01-11T09:19:56;100714.88;;;0.03;56.16
23953;BME280;12163;49.316;6.092;2024-01-11T09:22:23;100713.09;;;0.10;56.28
23953;BME280;12163;49.316;6.092;2024-01-11T09:24:50;100719.28;;;0.17;56.11
23953;BME280;12163;49.316;6.092;2024-01-11T09:27:16;100723.47;;;0.26;55.75
23953;BME280;12163;49.316;6.092;2024-01-11T09:29:44;100710.06;;;0.34;55.94
23953;BME280;12163;49.316;6.092;2024-01-11T09:32:12;100711.94;;;0.40;55.42
23953;BME280;12163;49.316;6.092;2024-01-11T09:34:39;100703.59;;;0.43;55.68
23953;BME280;12163;49.316;6.092;2024-01-11T09:37:06;100716.75;;;0.51;55.55
23953;BME280;12163;49.316;6.092;2024-01-11T09:39:32;100719.88;;;0.61;55.31
23953;BME280;12163;49.316;6.092;2024-01-11T09:42:07;100715.44;;;0.68;54.95
23953;BME280;12163;49.316;6.092;2024-01-11T09:44:36;100714.47;;;0.75;55.02
23953;BME280;12163;49.316;6.092;2024-01-11T09:47:05;100726.38;;;0.79;54.98
23953;BME280;12163;49.316;6.092;2024-01-11T09:49:33;100722.53;;;0.88;54.56
23953;BME280;12163;49.316;6.092;2024-01-11T09:52:00;100720.50;;;0.90;54.74
23953;BME280;12163;49.316;6.092;2024-01-11T09:54:27;100720.94;;;0.94;54.59
23953;BME280;12163;49.316;6.092;2024-01-11T09:56:55;100730.56;;;0.95;54.44
23953;BME280;12163;49.316;6.092;2024-01-11T09:59:25;100714.66;;;1.01;54.67
23953;BME280;12163;49.316;6.092;2024-01-11T10:01:52;100724.50;;;1.07;54.62
23953;BME280;12163;49.316;6.092;2024-01-11T10:04:19;100731.91;;;1.12;54.53
23953;BME280;12163;49.316;6.092;2024-01-11T10:06:46;100730.09;;;1.19;54.44
23953;BME280;12163;49.316;6.092;2024-01-11T10:09:12;100728.28;;;1.26;54.29
23953;BME280;12163;49.316;6.092;2024-01-11T10:11:39;100719.50;;;1.32;53.86
23953;BME280;12163;49.316;6.092;2024-01-11T10:14:06;100735.09;;;1.35;53.88
23953;BME280;12163;49.316;6.092;2024-01-11T10:16:34;100726.31;;;1.41;53.72
23953;BME280;12163;49.316;6.092;2024-01-11T10:19:01;100725.50;;;1.47;53.80
23953;BME280;12163;49.316;6.092;2024-01-11T10:21:27;100728.00;;;1.55;53.33
23953;BME280;12163;49.316;6.092;2024-01-11T10:23:57;100733.56;;;1.60;53.27
23953;BME280;12163;49.316;6.092;2024-01-11T10:26:25;100732.53;;;1.61;52.94
23953;BME280;12163;49.316;6.092;2024-01-11T10:28:51;100726.41;;;1.66;53.15
23953;BME280;12163;49.316;6.092;2024-01-11T10:31:18;100736.28;;;1.79;52.97
23953;BME280;12163;49.316;6.092;2024-01-11T10:33:45;100729.97;;;1.86;53.12
23953;BME280;12163;49.316;6.092;2024-01-11T10:36:12;100730.56;;;1.88;52.78
23953;BME280;12163;49.316;6.092;2024-01-11T10:38:39;100724.84;;;1.91;52.78
23953;BME280;12163;49.316;6.092;2024-01-11T10:41:06;100725.28;;;1.95;52.73
23953;BME280;12163;49.316;6.092;2024-01-11T10:43:37;100713.81;;;2.01;52.83
23953;BME280;12163;49.316;6.092;2024-01-11T10:46:05;100719.16;;;2.07;52.61
23953;BME280;12163;49.316;6.092;2024-01-11T10:48:43;100715.69;;;2.13;52.32
23953;BME280;12163;49.316;6.092;2024-01-11T10:51:12;100717.53;;;2.19;52.54
23953;BME280;12163;49.316;6.092;2024-01-11T10:53:46;100712.44;;;2.24;52.21
23953;BME280;12163;49.316;6.092;2024-01-11T10:56:15;100717.97;;;2.29;52.11
23953;BME280;12163;49.316;6.092;2024-01-11T10:58:45;100721.66;;;2.35;52.19
23953;BME280;12163;49.316;6.092;2024-01-11T11:01:13;100715.50;;;2.41;52.58
23953;BME280;12163;49.316;6.092;2024-01-11T11:03:41;100708.94;;;2.50;52.01
23953;BME280;12163;49.316;6.092;2024-01-11T11:06:11;100709.56;;;2.58;51.69
23953;BME280;12163;49.316;6.092;2024-01-11T11:08:39;100709.75;;;2.63;51.37
23953;BME280;12163;49.316;6.092;2024-01-11T11:11:06;100706.91;;;2.71;51.62
23953;BME280;12163;49.316;6.092;2024-01-11T11:13:34;100701.53;;;2.84;50.80
23953;BME280;12163;49.316;6.092;2024-01-11T11:16:01;100693.75;;;2.89;51.05
23953;BME280;12163;49.316;6.092;2024-01-11T11:18:31;100695.59;;;2.95;51.16
23953;BME280;12163;49.316;6.092;2024-01-11T11:21:00;100690.44;;;3.00;50.55
23953;BME280;12163;49.316;6.092;2024-01-11T11:23:27;100689.59;;;3.06;50.38
23953;BME280;12163;49.316;6.092;2024-01-11T11:25:54;100690.44;;;3.13;50.45
23953;BME280;12163;49.316;6.092;2024-01-11T11:28:25;100677.66;;;3.22;50.21
23953;BME280;12163;49.316;6.092;2024-01-11T11:30:52;100679.69;;;3.32;50.28
23953;BME280;12163;49.316;6.092;2024-01-11T11:33:21;100679.22;;;3.42;50.08
23953;BME280;12163;49.316;6.092;2024-01-11T11:35:53;100680.84;;;3.49;49.73
23953;BME280;12163;49.316;6.092;2024-01-11T11:38:21;100679.16;;;3.55;50.08
23953;BME280;12163;49.316;6.092;2024-01-11T11:40:51;100686.97;;;3.56;49.88
23953;BME280;12163;49.316;6.092;2024-01-11T11:43:18;100689.84;;;3.55;49.34
23953;BME280;12163;49.316;6.092;2024-01-11T11:45:50;100682.84;;;3.54;50.25
23953;BME280;12163;49.316;6.092;2024-01-11T11:51:22;100678.34;;;3.61;49.85
23953;BME280;12163;49.316;6.092;2024-01-11T11:53:52;100675.44;;;3.62;49.56
23953;BME280;12163;49.316;6.092;2024-01-11T11:56:20;100664.97;;;3.67;49.74
23953;BME280;12163;49.316;6.092;2024-01-11T11:58:48;100669.19;;;3.75;49.93
23953;BME280;12163;49.316;6.092;2024-01-11T12:01:21;100665.88;;;3.86;49.63
23953;BME280;12163;49.316;6.092;2024-01-11T12:03:48;100676.72;;;3.91;49.49
23953;BME280;12163;49.316;6.092;2024-01-11T12:06:21;100668.44;;;3.99;49.21
23953;BME280;12163;49.316;6.092;2024-01-11T12:08:52;100664.94;;;4.05;48.83
23953;BME280;12163;49.316;6.092;2024-01-11T12:11:23;100672.06;;;4.11;48.41
23953;BME280;12163;49.316;6.092;2024-01-11T12:13:50;100674.09;;;4.15;48.32
23953;BME280;12163;49.316;6.092;2024-01-11T12:16:17;100673.88;;;4.17;48.24
23953;BME280;12163;49.316;6.092;2024-01-11T12:18:43;100662.34;;;4.23;48.56
23953;BME280;12163;49.316;6.092;2024-01-11T12:21:10;100674.81;;;4.29;48.28
23953;BME280;12163;49.316;6.092;2024-01-11T12:23:38;100665.13;;;4.34;48.13
23953;BME280;12163;49.316;6.092;2024-01-11T12:26:07;100671.22;;;4.41;48.32
23953;BME280;12163;49.316;6.092;2024-01-11T12:28:39;100653.91;;;4.44;47.82
23953;BME280;12163;49.316;6.092;2024-01-11T12:31:06;100648.56;;;4.44;47.94
23953;BME280;12163;49.316;6.092;2024-01-11T12:33:34;100646.53;;;4.46;47.83
23953;BME280;12163;49.316;6.092;2024-01-11T12:36:05;100644.00;;;4.51;48.18
23953;BME280;12163;49.316;6.092;2024-01-11T12:38:33;100642.72;;;4.53;47.72
23953;BME280;12163;49.316;6.092;2024-01-11T12:41:00;100642.69;;;4.60;47.78
23953;BME280;12163;49.316;6.092;2024-01-11T12:43:27;100648.41;;;4.63;47.30
23953;BME280;12163;49.316;6.092;2024-01-11T12:45:54;100652.19;;;4.56;47.01
23953;BME280;12163;49.316;6.092;2024-01-11T12:48:21;100645.63;;;4.52;47.54
23953;BME280;12163;49.316;6.092;2024-01-11T12:50:48;100651.13;;;4.57;47.43
23953;BME280;12163;49.316;6.092;2024-01-11T12:53:15;100648.41;;;4.63;47.35
23953;BME280;12163;49.316;6.092;2024-01-11T12:55:48;100642.41;;;4.68;47.44
23953;BME280;12163;49.316;6.092;2024-01-11T12:58:23;100643.38;;;4.73;47.00